Time;durP1;ratioP1;P1;durP2;ratioP2;P2;SDS_P1;SDS_P2;PMS_P1;PMS_P2;Temp;Humidity;BMP_temperature;BMP_pressure;BME280_temperature;BME280_humidity;BME280_pressure;Samples;Min_cycle;Max_cycle;Signal;HPM_P1;HPM_P2
2022/07/16 00:01:25;;;;;;;1.83;0.95;;;15.90;99.90;;;;;;5067089;28;20073;-67
2022/07/16 00:03:59;;;;;;;3.53;0.88;;;15.90;99.90;;;;;;5068156;28;20124;-66
2022/07/16 00:06:27;;;;;;;3.22;1.23;;;15.90;99.90;;;;;;5067299;28;20499;-66
2022/07/16 00:08:53;;;;;;;4.07;1.08;;;15.90;99.90;;;;;;5068320;28;20051;-66
2022/07/16 00:11:20;;;;;;;2.80;1.10;;;15.90;99.90;;;;;;5068263;28;20037;-66
2022/07/16 00:13:45;;;;;;;2.20;1.38;;;15.80;99.90;;;;;;5066603;28;20063;-66
2022/07/16 00:16:12;;;;;;;2.65;1.13;;;15.80;99.90;;;;;;5068982;28;20049;-66
2022/07/16 00:21:23;;;;;;;1.48;1.10;;;15.90;99.90;;;;;;5068702;28;20055;-67
2022/07/16 00:23:48;;;;;;;2.65;1.20;;;15.80;99.90;;;;;;5069039;28;20049;-66
2022/07/16 00:26:14;;;;;;;2.15;1.30;;;15.80;99.90;;;;;;5068940;28;20041;-67
2022/07/16 00:28:40;;;;;;;2.08;1.38;;;15.80;99.90;;;;;;5067667;28;20072;-66
2022/07/16 00:31:05;;;;;;;2.42;1.13;;;15.80;99.90;;;;;;5068134;28;20040;-66
2022/07/16 00:33:32;;;;;;;2.53;0.98;;;15.80;99.90;;;;;;5067515;28;20044;-66
2022/07/16 00:35:57;;;;;;;4.43;1.30;;;15.80;99.90;;;;;;5067310;28;20051;-67
2022/07/16 00:38:23;;;;;;;2.50;1.13;;;15.90;99.90;;;;;;5068076;28;20041;-66
2022/07/16 00:40:49;;;;;;;3.30;1.45;;;15.90;99.90;;;;;;5068683;28;20041;-66
2022/07/16 00:43:15;;;;;;;2.97;1.45;;;15.90;99.90;;;;;;5071719;28;20040;-67
2022/07/16 00:45:41;;;;;;;2.92;1.20;;;15.90;99.90;;;;;;5073160;28;20044;-66
2022/07/16 00:48:07;;;;;;;2.83;1.35;;;15.90;99.90;;;;;;5070606;28;20052;-67
2022/07/16 00:50:35;;;;;;;1.95;1.20;;;15.90;99.90;;;;;;5071796;28;20040;-68
2022/07/16 00:53:02;;;;;;;2.65;1.20;;;15.90;99.90;;;;;;5072427;28;20044;-66
2022/07/16 00:55:28;;;;;;;3.67;1.20;;;15.90;99.90;;;;;;5070106;28;20561;-66
2022/07/16 00:57:55;;;;;;;3.50;1.60;;;15.90;99.90;;;;;;5071439;28;20573;-66
2022/07/16 01:00:21;;;;;;;2.78;1.58;;;15.90;99.90;;;;;;5071691;28;20080;-66
2022/07/16 01:02:47;;;;;;;3.15;1.90;;;15.80;99.90;;;;;;5072330;28;20129;-65
2022/07/16 01:05:14;;;;;;;4.45;1.92;;;15.80;99.90;;;;;;5070881;28;20502;-66
2022/07/16 01:07:41;;;;;;;3.58;1.95;;;15.60;99.90;;;;;;5071512;28;20059;-67
2022/07/16 01:10:07;;;;;;;5.28;1.90;;;15.60;99.90;;;;;;5070004;28;20056;-66
2022/07/16 01:12:33;;;;;;;3.85;2.00;;;15.50;99.90;;;;;;5070548;28;20048;-66
2022/07/16 01:15:00;;;;;;;2.58;1.48;;;15.50;99.90;;;;;;5072103;28;20048;-67
2022/07/16 01:17:25;;;;;;;3.17;1.63;;;15.40;99.90;;;;;;5070238;28;20049;-67
2022/07/16 01:19:51;;;;;;;3.88;1.80;;;15.30;99.90;;;;;;5070864;28;20052;-66
2022/07/16 01:22:22;;;;;;;3.60;1.40;;;15.40;99.90;;;;;;5072056;28;20048;-66
2022/07/16 01:24:49;;;;;;;2.90;1.55;;;15.30;99.90;;;;;;5070906;28;20051;-67
2022/07/16 01:27:16;;;;;;;4.97;1.60;;;15.20;99.90;;;;;;5070096;28;20055;-66
2022/07/16 01:29:42;;;;;;;2.38;1.27;;;15.20;99.90;;;;;;5071093;28;20162;-66
2022/07/16 01:32:08;;;;;;;2.63;1.25;;;15.20;99.90;;;;;;5068766;28;20488;-66
2022/07/16 01:34:34;;;;;;;3.30;1.25;;;15.20;99.90;;;;;;5072103;28;20044;-66
2022/07/16 01:37:03;;;;;;;3.05;1.58;;;15.20;99.90;;;;;;5069929;28;20048;-67
2022/07/16 01:39:31;;;;;;;3.40;1.00;;;15.20;99.90;;;;;;5069759;28;20036;-66
2022/07/16 01:42:00;;;;;;;2.45;1.30;;;15.20;99.90;;;;;;5070703;28;20073;-66
2022/07/16 01:44:28;;;;;;;3.42;1.23;;;15.20;99.90;;;;;;5071229;28;20123;-67
2022/07/16 01:46:55;;;;;;;2.42;0.90;;;15.20;99.90;;;;;;5070471;28;20395;-67
2022/07/16 01:49:21;;;;;;;1.85;1.40;;;15.20;99.90;;;;;;5071588;28;20059;-66
2022/07/16 01:51:47;;;;;;;1.67;0.90;;;15.00;99.90;;;;;;5070166;28;20048;-66
2022/07/16 01:54:13;;;;;;;3.00;0.90;;;15.10;99.90;;;;;;5067507;28;20051;-66
2022/07/16 01:56:39;;;;;;;1.60;0.77;;;15.20;99.90;;;;;;5070325;28;20063;-66
2022/07/16 01:59:06;;;;;;;2.65;1.00;;;15.20;99.90;;;;;;5070843;28;20104;-66
2022/07/16 02:01:31;;;;;;;2.58;1.20;;;15.20;99.90;;;;;;5070271;28;20048;-66
2022/07/16 02:03:58;;;;;;;3.83;0.90;;;15.20;99.90;;;;;;5070859;28;20059;-66
2022/07/16 02:06:23;;;;;;;3.83;1.00;;;15.20;99.90;;;;;;5070914;28;20047;-66
2022/07/16 02:08:49;;;;;;;4.18;0.90;;;15.20;99.90;;;;;;5069447;28;20408;-67
2022/07/16 02:11:15;;;;;;;2.40;0.80;;;15.20;99.90;;;;;;5069004;28;20101;-67
2022/07/16 02:13:42;;;;;;;4.13;1.00;;;15.20;99.90;;;;;;5068467;28;20037;-66
2022/07/16 02:16:08;;;;;;;2.25;0.70;;;15.20;99.90;;;;;;5069838;28;20471;-66
2022/07/16 02:18:35;;;;;;;3.13;0.80;;;15.20;99.90;;;;;;5069368;28;20128;-66
2022/07/16 02:21:02;;;;;;;3.53;0.80;;;15.10;99.90;;;;;;5070409;28;20037;-66
2022/07/16 02:23:27;;;;;;;2.50;0.75;;;15.10;99.90;;;;;;5069828;28;20052;-66
2022/07/16 02:25:53;;;;;;;2.80;0.80;;;15.10;99.90;;;;;;5069833;28;20133;-67
2022/07/16 02:28:19;;;;;;;1.67;0.70;;;15.10;99.90;;;;;;5068586;28;20040;-67
2022/07/16 02:30:47;;;;;;;3.65;0.80;;;15.10;99.90;;;;;;5069663;28;20076;-66
2022/07/16 02:33:15;;;;;;;4.18;0.68;;;15.00;99.90;;;;;;5070268;28;20048;-66
2022/07/16 02:35:41;;;;;;;1.55;0.85;;;15.00;99.90;;;;;;5068512;28;20484;-66
2022/07/16 02:38:08;;;;;;;2.25;0.60;;;15.80;99.90;;;;;;5069227;28;20080;-66
2022/07/16 02:40:35;;;;;;;2.35;0.50;;;15.00;99.90;;;;;;5069782;28;20075;-66
2022/07/16 02:43:02;;;;;;;3.38;0.88;;;15.10;99.90;;;;;;5051162;28;20059;-66
2022/07/16 02:45:29;;;;;;;4.32;0.70;;;14.90;99.90;;;;;;5068024;28;20044;-66
2022/07/16 02:47:54;;;;;;;3.17;0.70;;;14.90;99.90;;;;;;5069275;28;20098;-66
2022/07/16 02:50:20;;;;;;;2.53;0.70;;;14.90;99.90;;;;;;5067116;28;20040;-66
2022/07/16 02:52:46;;;;;;;2.88;0.60;;;14.90;99.90;;;;;;5069751;28;20101;-66
2022/07/16 02:55:11;;;;;;;1.00;0.70;;;14.90;99.90;;;;;;5069762;28;20044;-66
2022/07/16 02:57:38;;;;;;;2.28;0.70;;;14.90;99.90;;;;;;5067867;28;20051;-66
2022/07/16 03:00:06;;;;;;;1.60;0.57;;;14.90;99.90;;;;;;5068296;28;20060;-67
2022/07/16 03:02:32;;;;;;;3.83;0.57;;;14.80;99.90;;;;;;5093359;28;20097;-66
2022/07/16 03:04:58;;;;;;;4.18;0.80;;;14.80;99.90;;;;;;5093164;28;20044;-66
2022/07/16 03:07:23;;;;;;;4.10;0.80;;;14.80;99.90;;;;;;5093329;28;20407;-66
2022/07/16 03:09:49;;;;;;;2.28;0.75;;;14.80;99.90;;;;;;5092536;28;20051;-66
2022/07/16 03:12:15;;;;;;;1.55;0.80;;;14.80;99.90;;;;;;5093072;28;20046;-66
2022/07/16 03:14:40;;;;;;;6.68;1.20;;;14.70;99.90;;;;;;5092031;28;20087;-67
2022/07/16 03:17:06;;;;;;;2.28;0.82;;;14.70;99.90;;;;;;5093691;28;20048;-66
2022/07/16 03:19:32;;;;;;;2.35;0.85;;;14.60;99.90;;;;;;5092032;28;20388;-66
2022/07/16 03:21:57;;;;;;;3.60;0.88;;;14.60;99.90;;;;;;5093208;28;20044;-66
2022/07/16 03:24:23;;;;;;;2.53;0.77;;;14.50;99.90;;;;;;5092882;28;20453;-66
2022/07/16 03:26:49;;;;;;;3.08;1.10;;;14.60;99.90;;;;;;5092701;28;20046;-66
2022/07/16 03:29:14;;;;;;;2.47;0.70;;;14.50;99.90;;;;;;5091595;28;20122;-66
2022/07/16 03:31:40;;;;;;;2.45;0.75;;;14.40;99.90;;;;;;5092891;28;20094;-66
2022/07/16 03:34:06;;;;;;;1.30;0.73;;;14.40;99.90;;;;;;5092665;28;20101;-66
2022/07/16 03:36:31;;;;;;;1.63;0.98;;;14.40;99.90;;;;;;5092820;28;20048;-66
2022/07/16 03:38:57;;;;;;;2.20;0.80;;;14.40;99.90;;;;;;5092561;28;20079;-66
2022/07/16 03:41:23;;;;;;;3.35;1.08;;;14.30;99.90;;;;;;5092340;28;20066;-66
2022/07/16 03:43:48;;;;;;;4.00;0.70;;;14.20;99.90;;;;;;5092507;28;20051;-66
2022/07/16 03:46:14;;;;;;;6.32;0.85;;;14.20;99.90;;;;;;5074968;28;20488;-66
2022/07/16 03:48:41;;;;;;;2.60;0.70;;;14.10;99.90;;;;;;5092664;28;20404;-66
2022/07/16 03:51:07;;;;;;;2.13;0.80;;;14.20;99.90;;;;;;5092728;28;20071;-66
2022/07/16 03:53:34;;;;;;;2.10;0.90;;;14.20;99.90;;;;;;5092685;28;20063;-66
2022/07/16 03:56:00;;;;;;;6.72;1.10;;;14.10;99.90;;;;;;5092992;28;20075;-66
2022/07/16 03:58:26;;;;;;;2.15;0.77;;;14.10;99.90;;;;;;5092845;28;20695;-66
2022/07/16 04:00:52;;;;;;;3.75;0.77;;;14.10;99.90;;;;;;5091442;28;20059;-66
2022/07/16 04:03:18;;;;;;;1.67;0.80;;;14.10;99.90;;;;;;5092704;28;20048;-66
2022/07/16 04:05:44;;;;;;;3.30;0.88;;;14.20;99.90;;;;;;5092561;28;20036;-66
2022/07/16 04:08:09;;;;;;;5.15;1.55;;;14.10;99.90;;;;;;5091508;28;20503;-66
2022/07/16 04:10:35;;;;;;;3.28;1.00;;;14.10;99.90;;;;;;5092412;28;20044;-66
2022/07/16 04:13:01;;;;;;;5.35;1.10;;;14.20;99.90;;;;;;5091177;28;20063;-66
2022/07/16 04:15:26;;;;;;;3.15;0.82;;;14.10;99.90;;;;;;5092877;28;20048;-66
2022/07/16 04:17:53;;;;;;;3.30;1.05;;;14.00;99.90;;;;;;5095204;28;20048;-65
2022/07/16 04:20:18;;;;;;;3.33;0.80;;;14.10;99.90;;;;;;5096311;28;20049;-66
2022/07/16 04:22:44;;;;;;;2.25;0.90;;;14.10;99.90;;;;;;5096551;28;20412;-66
2022/07/16 04:25:12;;;;;;;3.10;0.90;;;14.10;99.90;;;;;;5095272;28;20513;-65
2022/07/16 04:27:39;;;;;;;3.03;0.85;;;14.10;99.90;;;;;;5096121;28;20064;-66
2022/07/16 04:30:05;;;;;;;5.32;1.15;;;14.10;99.90;;;;;;5094911;28;20099;-65
2022/07/16 04:32:31;;;;;;;4.70;0.90;;;14.10;99.90;;;;;;5096271;28;20040;-66
2022/07/16 04:34:57;;;;;;;2.38;0.80;;;14.20;99.90;;;;;;5095092;28;20052;-66
2022/07/16 04:37:22;;;;;;;1.73;0.85;;;14.30;99.90;;;;;;5096465;28;20067;-65
2022/07/16 04:39:48;;;;;;;4.47;1.00;;;14.10;99.90;;;;;;5095267;28;20047;-66
2022/07/16 04:42:13;;;;;;;4.13;0.95;;;14.20;99.90;;;;;;5095620;28;20090;-66
2022/07/16 04:44:39;;;;;;;2.88;1.08;;;14.20;99.90;;;;;;5096035;28;20083;-65
2022/07/16 04:47:05;;;;;;;3.65;1.00;;;14.20;99.90;;;;;;5095916;28;20059;-65
2022/07/16 04:49:30;;;;;;;5.03;1.00;;;14.20;99.90;;;;;;5095707;28;20040;-66
2022/07/16 04:51:56;;;;;;;4.45;0.90;;;14.30;99.90;;;;;;5094522;28;20129;-66
2022/07/16 04:54:22;;;;;;;4.22;0.80;;;14.30;99.90;;;;;;5095843;28;20075;-66
2022/07/16 04:56:47;;;;;;;4.97;1.45;;;14.30;99.90;;;;;;5095224;28;20491;-66
2022/07/16 04:59:13;;;;;;;3.03;1.10;;;14.30;99.90;;;;;;5095653;28;20488;-66
2022/07/16 05:01:39;;;;;;;3.40;1.10;;;14.30;99.90;;;;;;5094821;28;20459;-66
2022/07/16 05:04:04;;;;;;;3.92;0.80;;;14.30;99.90;;;;;;5094924;28;20047;-66
2022/07/16 05:06:30;;;;;;;2.15;0.90;;;14.30;99.90;;;;;;5095383;28;20083;-65
2022/07/16 05:08:56;;;;;;;2.40;0.80;;;14.30;99.90;;;;;;5095339;28;20502;-66
2022/07/16 05:11:23;;;;;;;1.67;0.77;;;14.30;99.90;;;;;;5094995;28;20052;-65
2022/07/16 05:13:51;;;;;;;1.90;0.80;;;14.30;99.90;;;;;;5095425;28;20040;-66
2022/07/16 05:16:17;;;;;;;2.63;0.70;;;14.30;99.90;;;;;;5095410;28;20516;-66
2022/07/16 05:18:43;;;;;;;2.38;0.70;;;14.30;99.90;;;;;;5095350;28;20086;-65
2022/07/16 05:21:09;;;;;;;7.05;0.77;;;14.30;99.90;;;;;;5094056;28;20051;-67
2022/07/16 05:23:35;;;;;;;2.25;0.70;;;14.30;99.90;;;;;;5095407;28;20040;-66
2022/07/16 05:26:01;;;;;;;4.53;0.80;;;14.30;99.90;;;;;;5095148;28;20132;-67
2022/07/16 05:28:26;;;;;;;3.25;0.65;;;14.30;99.90;;;;;;5095265;28;20480;-67
2022/07/16 05:30:52;;;;;;;1.83;0.60;;;14.40;99.90;;;;;;5095565;28;20040;-67
2022/07/16 05:33:18;;;;;;;5.05;0.63;;;14.40;99.90;;;;;;5093775;28;20097;-67
2022/07/16 05:35:43;;;;;;;4.50;0.60;;;14.50;99.90;;;;;;5094981;28;20117;-67
2022/07/16 05:38:09;;;;;;;4.40;0.80;;;14.50;99.90;;;;;;5095040;28;20043;-67
2022/07/16 05:40:35;;;;;;;3.70;0.60;;;14.60;99.90;;;;;;5094314;28;20047;-67
2022/07/16 05:43:01;;;;;;;4.43;0.70;;;14.60;99.90;;;;;;5095018;28;20055;-67
2022/07/16 05:45:27;;;;;;;2.53;0.60;;;14.60;99.90;;;;;;5095035;28;20085;-67
2022/07/16 05:47:52;;;;;;;3.38;0.60;;;14.60;99.90;;;;;;5094755;28;20048;-67
2022/07/16 05:50:18;;;;;;;3.08;0.55;;;14.70;99.90;;;;;;5093870;28;20044;-67
2022/07/16 05:52:44;;;;;;;3.78;0.77;;;14.60;99.90;;;;;;5093692;28;20044;-67
2022/07/16 05:55:09;;;;;;;3.22;0.55;;;14.70;99.90;;;;;;5093257;28;20051;-67
2022/07/16 05:57:35;;;;;;;4.85;0.68;;;14.70;99.90;;;;;;5094562;28;20052;-67
2022/07/16 06:00:02;;;;;;;3.67;0.60;;;14.70;99.90;;;;;;5094397;28;20044;-67
2022/07/16 06:02:27;;;;;;;2.53;0.55;;;14.70;99.90;;;;;;5094312;28;20056;-67
2022/07/16 06:04:53;;;;;;;2.15;0.60;;;14.80;99.90;;;;;;5093091;28;20055;-67
2022/07/16 06:07:19;;;;;;;4.18;0.70;;;14.80;99.90;;;;;;5093213;28;20186;-67
2022/07/16 06:09:44;;;;;;;3.50;0.60;;;14.80;99.90;;;;;;5093979;28;20044;-67
2022/07/16 06:12:10;;;;;;;4.43;0.60;;;14.90;99.90;;;;;;5094397;28;20044;-67
2022/07/16 06:14:36;;;;;;;3.22;0.60;;;15.00;99.90;;;;;;5092980;28;20156;-67
2022/07/16 06:17:01;;;;;;;2.78;0.60;;;15.00;99.90;;;;;;5094107;28;20055;-67
2022/07/16 06:19:27;;;;;;;3.50;0.45;;;15.10;99.90;;;;;;5093003;28;20044;-67
2022/07/16 06:21:53;;;;;;;4.57;0.50;;;15.10;99.90;;;;;;5094133;28;20149;-67
2022/07/16 06:24:18;;;;;;;4.55;0.47;;;15.20;99.90;;;;;;5093913;28;20048;-67
2022/07/16 06:26:47;;;;;;;3.53;0.50;;;15.30;99.90;;;;;;5093952;28;20040;-66
2022/07/16 06:29:16;;;;;;;3.53;0.50;;;15.40;99.90;;;;;;5093983;28;20044;-67
2022/07/16 06:31:43;;;;;;;5.38;0.43;;;15.40;99.90;;;;;;5092488;28;20093;-67
2022/07/16 06:34:12;;;;;;;6.13;0.50;;;15.40;99.90;;;;;;5093877;28;20086;-67
2022/07/16 06:36:38;;;;;;;2.45;0.30;;;15.40;99.90;;;;;;5093547;28;20050;-67
2022/07/16 06:39:05;;;;;;;3.05;0.40;;;15.50;99.90;;;;;;5093372;28;20044;-67
2022/07/16 06:41:31;;;;;;;1.50;0.30;;;15.50;99.90;;;;;;5075314;28;20105;-66
2022/07/16 06:43:57;;;;;;;3.80;0.40;;;15.40;99.90;;;;;;5093694;28;20048;-65
2022/07/16 06:46:22;;;;;;;2.00;0.40;;;15.40;99.90;;;;;;5093548;28;20052;-68
2022/07/16 06:48:48;;;;;;;4.47;0.40;;;15.40;99.90;;;;;;5093595;28;20050;-66
2022/07/16 06:51:14;;;;;;;2.72;0.30;;;15.40;99.90;;;;;;5093441;28;20480;-66
2022/07/16 06:53:39;;;;;;;2.30;0.38;;;15.50;99.90;;;;;;5093220;28;20487;-67
2022/07/16 06:56:08;;;;;;;3.03;0.40;;;15.40;99.90;;;;;;5093609;28;20480;-67
2022/07/16 06:58:34;;;;;;;0.68;0.35;;;15.40;99.90;;;;;;5072169;28;20358;-67
2022/07/16 07:01:01;;;;;;;4.97;0.60;;;15.40;99.90;;;;;;5071474;28;20052;-66
2022/07/16 07:03:27;;;;;;;1.65;0.30;;;15.50;99.90;;;;;;5072052;28;20492;-67
2022/07/16 07:05:53;;;;;;;1.52;0.30;;;15.50;99.90;;;;;;5072335;28;20064;-67
2022/07/16 07:08:19;;;;;;;4.28;0.50;;;15.60;99.90;;;;;;5072941;28;20525;-66
2022/07/16 07:10:44;;;;;;;1.77;0.40;;;15.70;99.90;;;;;;5071298;28;20044;-66
2022/07/16 07:13:10;;;;;;;0.73;0.40;;;15.70;99.90;;;;;;5071695;28;20554;-66
2022/07/16 07:15:36;;;;;;;2.63;0.38;;;15.80;99.90;;;;;;5072848;28;20095;-68
2022/07/16 07:18:01;;;;;;;1.67;0.40;;;15.80;99.90;;;;;;5073462;28;20056;-66
2022/07/16 07:20:27;;;;;;;3.22;0.40;;;16.00;99.90;;;;;;5072978;28;20048;-67
2022/07/16 07:22:53;;;;;;;2.10;0.30;;;16.00;99.90;;;;;;5071491;28;20052;-66
2022/07/16 07:25:19;;;;;;;3.47;0.40;;;16.10;99.90;;;;;;5072982;28;20055;-68
2022/07/16 07:27:45;;;;;;;1.42;0.40;;;16.10;99.90;;;;;;5071960;28;20053;-66
2022/07/16 07:30:11;;;;;;;2.42;0.30;;;16.00;99.90;;;;;;5072972;28;20045;-66
2022/07/16 07:32:37;;;;;;;2.65;0.20;;;15.90;99.90;;;;;;5073080;28;20097;-66
2022/07/16 07:35:04;;;;;;;2.90;0.60;;;15.90;99.90;;;;;;5071836;28;20438;-67
2022/07/16 07:37:29;;;;;;;1.48;0.30;;;15.80;99.90;;;;;;5072267;28;20059;-67
2022/07/16 07:39:55;;;;;;;2.25;0.40;;;15.80;99.90;;;;;;5072232;28;20480;-66
2022/07/16 07:42:21;;;;;;;2.05;0.30;;;15.70;99.90;;;;;;5072546;28;20052;-66
2022/07/16 07:44:46;;;;;;;2.15;0.50;;;15.60;99.90;;;;;;5072546;28;20458;-66
2022/07/16 07:47:12;;;;;;;3.28;0.30;;;15.60;99.90;;;;;;5072864;28;20049;-65
2022/07/16 07:49:38;;;;;;;3.75;0.40;;;15.60;99.90;;;;;;5072512;28;20052;-66
2022/07/16 07:52:04;;;;;;;1.80;0.30;;;15.70;99.90;;;;;;5075674;28;20084;-66
2022/07/16 07:54:30;;;;;;;1.90;0.30;;;15.80;99.90;;;;;;5076820;28;20044;-66
2022/07/16 07:56:55;;;;;;;3.00;0.40;;;16.00;99.90;;;;;;5075856;28;20044;-67
2022/07/16 07:59:21;;;;;;;2.30;0.30;;;16.00;99.90;;;;;;5075796;28;20056;-66
2022/07/16 08:01:47;;;;;;;1.75;0.30;;;16.00;99.90;;;;;;5076752;28;20511;-66
2022/07/16 08:04:12;;;;;;;2.45;0.30;;;16.10;99.90;;;;;;5075503;28;20055;-66
2022/07/16 08:06:38;;;;;;;2.58;0.30;;;16.10;99.90;;;;;;5076247;28;20051;-66
2022/07/16 08:09:04;;;;;;;3.30;0.40;;;16.30;99.90;;;;;;5076629;28;20393;-66
2022/07/16 08:11:30;;;;;;;1.52;0.30;;;16.40;99.90;;;;;;5076175;28;20052;-66
2022/07/16 08:13:55;;;;;;;2.80;0.40;;;16.50;99.90;;;;;;5075469;28;20413;-66
2022/07/16 08:16:21;;;;;;;1.75;0.20;;;16.50;99.90;;;;;;5076802;28;20052;-66
2022/07/16 08:18:47;;;;;;;3.10;0.30;;;16.50;99.90;;;;;;5074965;28;20143;-66
2022/07/16 08:21:12;;;;;;;1.67;0.30;;;16.50;99.90;;;;;;5076155;28;20044;-66
2022/07/16 08:26:22;;;;;;;3.88;0.32;;;16.50;99.90;;;;;;5075040;28;20102;-66
2022/07/16 08:28:48;;;;;;;3.80;0.30;;;16.50;99.90;;;;;;5075744;28;20044;-66
2022/07/16 08:31:14;;;;;;;1.35;0.40;;;16.60;99.90;;;;;;5076305;28;20044;-66
2022/07/16 08:33:40;;;;;;;6.40;0.50;;;16.60;99.90;;;;;;5075665;28;20044;-66
2022/07/16 08:36:06;;;;;;;2.92;0.38;;;16.50;99.90;;;;;;5076052;28;20044;-66
2022/07/16 08:38:32;;;;;;;2.63;0.40;;;16.50;99.90;;;;;;5075685;28;20504;-66
2022/07/16 08:40:58;;;;;;;3.60;0.50;;;16.60;99.90;;;;;;5074478;28;20040;-67
2022/07/16 08:43:24;;;;;;;4.65;0.60;;;16.50;99.90;;;;;;5076233;28;20048;-66
2022/07/16 08:45:51;;;;;;;4.63;0.60;;;16.50;99.90;;;;;;5075559;28;20055;-66
2022/07/16 08:48:17;;;;;;;2.20;0.40;;;16.60;99.90;;;;;;5075772;28;20048;-67
2022/07/16 08:50:43;;;;;;;1.60;0.40;;;16.60;99.90;;;;;;5075821;28;20037;-67
2022/07/16 08:53:09;;;;;;;4.32;0.40;;;16.60;99.90;;;;;;5075867;28;20048;-68
2022/07/16 08:55:38;;;;;;;2.92;0.60;;;16.70;99.90;;;;;;5075770;28;20044;-67
2022/07/16 08:58:06;;;;;;;2.50;0.50;;;16.80;99.90;;;;;;5075871;28;20087;-68
2022/07/16 09:00:33;;;;;;;2.97;0.50;;;16.90;99.90;;;;;;5075807;28;20054;-67
2022/07/16 09:02:59;;;;;;;3.83;0.50;;;17.00;99.90;;;;;;5075294;28;20056;-67
2022/07/16 09:05:26;;;;;;;6.20;0.50;;;17.00;99.90;;;;;;5074578;28;20512;-67
2022/07/16 09:07:53;;;;;;;2.58;0.50;;;17.10;99.90;;;;;;5074235;28;20048;-68
2022/07/16 09:10:19;;;;;;;2.00;0.50;;;17.10;99.90;;;;;;5075191;28;20128;-68
2022/07/16 09:12:47;;;;;;;3.17;0.45;;;17.20;99.90;;;;;;5057839;28;20047;-67
2022/07/16 09:15:28;;;;;;;4.28;0.50;;;17.30;99.90;;;;;;5075125;28;20040;-69
2022/07/16 09:18:16;;;;;;;2.08;0.47;;;17.40;99.90;;;;;;5073716;28;20400;-67
2022/07/16 09:21:02;;;;;;;1.65;0.40;;;17.40;99.90;;;;;;5072216;28;20041;-68
2022/07/16 09:23:34;;;;;;;2.38;0.40;;;17.40;99.90;;;;;;5074489;28;20049;-68
2022/07/16 09:26:02;;;;;;;3.88;0.70;;;17.30;99.90;;;;;;5074581;28;20043;-68
2022/07/16 09:28:48;;;;;;;1.52;0.40;;;17.20;99.90;;;;;;5074628;28;20388;-67
2022/07/16 09:31:39;;;;;;;1.80;0.50;;;17.20;99.90;;;;;;5072026;28;20045;-67
2022/07/16 09:34:05;;;;;;;3.58;0.40;;;17.20;99.90;;;;;;5073396;28;20050;-67
2022/07/16 09:36:30;;;;;;;2.92;0.40;;;17.30;99.90;;;;;;5074412;28;20093;-67
2022/07/16 09:38:56;;;;;;;2.53;0.40;;;17.30;99.90;;;;;;5074492;28;20072;-68
2022/07/16 09:41:22;;;;;;;1.77;0.30;;;17.30;99.90;;;;;;5073981;28;20036;-67
2022/07/16 09:43:49;;;;;;;3.83;0.45;;;17.30;99.90;;;;;;5074263;28;20044;-70
2022/07/16 09:46:17;;;;;;;1.55;0.40;;;17.30;99.90;;;;;;5074654;28;20045;-67
2022/07/16 09:48:44;;;;;;;4.00;0.40;;;17.40;99.90;;;;;;5074302;28;20389;-68
2022/07/16 09:51:22;;;;;;;2.35;0.30;;;17.50;99.90;;;;;;5074174;28;20048;-68
2022/07/16 09:53:49;;;;;;;2.88;0.50;;;17.60;99.90;;;;;;5072999;28;20048;-68
2022/07/16 09:56:29;;;;;;;3.60;0.38;;;17.70;99.90;;;;;;5074233;28;20068;-69
2022/07/16 09:59:00;;;;;;;2.50;0.40;;;17.90;99.90;;;;;;5070034;28;20510;-69
2022/07/16 10:01:26;;;;;;;3.08;0.50;;;17.90;99.90;;;;;;5073965;28;20036;-71
2022/07/16 10:03:52;;;;;;;2.08;0.32;;;17.90;99.90;;;;;;5072597;28;20420;-69
2022/07/16 10:06:18;;;;;;;2.55;0.30;;;17.90;99.90;;;;;;5073236;28;20048;-69
2022/07/16 10:08:45;;;;;;;2.63;0.40;;;18.00;99.90;;;;;;5073996;28;20044;-68
2022/07/16 10:11:12;;;;;;;3.22;0.40;;;17.90;99.90;;;;;;5073262;28;20043;-68
2022/07/16 10:13:44;;;;;;;1.88;0.40;;;17.90;99.90;;;;;;5071551;28;20109;-68
2022/07/16 10:16:09;;;;;;;1.85;0.50;;;17.80;99.90;;;;;;5073567;28;20055;-69
2022/07/16 10:18:38;;;;;;;1.55;0.30;;;17.70;99.90;;;;;;5073765;28;20400;-69
2022/07/16 10:21:29;;;;;;;2.38;0.40;;;17.70;99.90;;;;;;5073856;28;20044;-69
2022/07/16 10:24:09;;;;;;;2.47;0.30;;;17.80;99.90;;;;;;5070929;28;20109;-68
2022/07/16 10:26:35;;;;;;;1.95;0.35;;;18.00;99.90;;;;;;5070155;28;20390;-68
2022/07/16 10:29:03;;;;;;;4.25;0.30;;;18.20;99.90;;;;;;5073115;28;20048;-69
2022/07/16 10:32:45;;;;;;;2.03;0.50;;;18.20;99.90;;;;;;5073606;28;20392;-68
2022/07/16 10:34:40;;;;;;;3.50;0.45;;;18.10;99.90;;;;;;5068277;28;20127;-68
2022/07/16 10:37:11;;;;;;;3.92;0.40;;;18.00;99.90;;;;;;5073906;28;20481;-68
2022/07/16 10:40:09;;;;;;;3.60;0.55;;;18.00;99.90;;;;;;5073722;28;20131;-68
2022/07/16 10:42:35;;;;;;;2.80;0.32;;;17.90;99.90;;;;;;5073484;28;20489;-68
2022/07/16 10:45:02;;;;;;;5.55;0.40;;;17.90;99.90;;;;;;5073987;28;20044;-69
2022/07/16 10:47:55;;;;;;;1.50;0.63;;;18.00;99.90;;;;;;5073190;28;20488;-68
2022/07/16 10:50:22;;;;;;;;;;;18.10;99.90;;;;;;5071464;28;20084;-69
2022/07/16 10:52:50;;;;;;;2.60;0.40;;;18.10;99.90;;;;;;5073519;28;19930;-68
2022/07/16 10:55:38;;;;;;;3.65;0.60;;;18.20;99.90;;;;;;5072268;28;20084;-68
2022/07/16 10:58:04;;;;;;;2.30;0.40;;;18.20;99.90;;;;;;5073073;28;20488;-67
2022/07/16 11:00:32;;;;;;;5.43;0.57;;;18.10;99.90;;;;;;5073153;28;20053;-69
2022/07/16 11:03:01;;;;;;;5.53;0.60;;;18.10;99.90;;;;;;5056049;28;20060;-68
2022/07/16 11:05:29;;;;;;;3.80;0.60;;;18.00;99.90;;;;;;5073079;28;20527;-68
2022/07/16 11:08:05;;;;;;;5.07;0.50;;;18.00;99.90;;;;;;5072306;28;20053;-68
2022/07/16 11:10:31;;;;;;;3.92;0.40;;;18.00;99.90;;;;;;5071904;28;20559;-71
2022/07/16 11:12:56;;;;;;;3.35;0.45;;;18.20;99.90;;;;;;5073233;28;20084;-67
2022/07/16 11:15:22;;;;;;;3.42;0.30;;;18.00;99.90;;;;;;5073112;28;20046;-68
2022/07/16 11:17:57;;;;;;;2.20;0.40;;;18.00;99.90;;;;;;5073102;28;20080;-68
2022/07/16 11:20:34;;;;;;;5.03;0.60;;;17.90;99.90;;;;;;5071976;28;20531;-67
2022/07/16 11:23:06;;;;;;;3.10;0.50;;;17.90;99.90;;;;;;5073094;28;20472;-68
2022/07/16 11:25:32;;;;;;;3.42;0.40;;;17.90;99.90;;;;;;5071855;28;20052;-68
2022/07/16 11:28:00;;;;;;;3.60;0.50;;;18.00;99.90;;;;;;5073053;28;20098;-68
2022/07/16 11:30:26;;;;;;;5.50;0.50;;;18.10;99.90;;;;;;5071786;28;20048;-70
2022/07/16 11:32:52;;;;;;;5.65;0.63;;;18.30;99.90;;;;;;5072963;28;20040;-67
2022/07/16 11:35:17;;;;;;;1.98;0.40;;;18.30;99.90;;;;;;5068931;28;20087;-69
2022/07/16 11:37:54;;;;;;;3.65;0.60;;;18.20;99.90;;;;;;5068857;28;20170;-67
2022/07/16 11:40:31;;;;;;;2.90;0.40;;;18.20;99.90;;;;;;5067972;28;20458;-68
2022/07/16 11:42:58;;;;;;;2.78;0.40;;;18.20;99.90;;;;;;5043746;28;21280;-67
2022/07/16 11:45:26;;;;;;;1.15;0.30;;;18.20;99.90;;;;;;5064283;28;20113;-67
2022/07/16 11:48:11;;;;;;;2.65;0.40;;;18.20;99.90;;;;;;5064715;28;20254;-69
2022/07/16 11:50:37;;;;;;;3.13;0.40;;;18.20;99.90;;;;;;5063654;28;20442;-68
2022/07/16 11:53:03;;;;;;;4.82;0.43;;;18.30;99.90;;;;;;5064870;28;20064;-69
2022/07/16 11:55:28;;;;;;;2.13;0.50;;;18.30;99.90;;;;;;5063777;28;20053;-69
2022/07/16 11:57:54;;;;;;;2.22;0.30;;;18.40;99.90;;;;;;5063629;28;20134;-69
2022/07/16 12:00:20;;;;;;;2.97;0.40;;;18.50;99.90;;;;;;5063585;28;20051;-69
2022/07/16 12:02:46;;;;;;;2.60;0.50;;;18.50;99.90;;;;;;5063987;28;20041;-69
2022/07/16 12:05:11;;;;;;;2.38;0.40;;;18.50;99.90;;;;;;5061781;28;20060;-68
2022/07/16 12:07:37;;;;;;;1.50;0.30;;;19.00;99.90;;;;;;5060010;28;20048;-69
2022/07/16 12:10:05;;;;;;;1.77;0.35;;;18.60;99.50;;;;;;5064176;28;20063;-69
2022/07/16 12:12:34;;;;;;;2.05;0.30;;;18.60;98.40;;;;;;5063475;28;20499;-69
2022/07/16 12:15:04;;;;;;;2.15;0.40;;;18.70;97.30;;;;;;5063768;28;20056;-70
2022/07/16 12:17:36;;;;;;;2.47;0.40;;;18.80;97.50;;;;;;5063658;28;20150;-69
2022/07/16 12:20:12;;;;;;;2.55;0.38;;;18.90;97.10;;;;;;5066827;28;20079;-69
2022/07/16 12:22:47;;;;;;;2.70;0.30;;;18.90;96.20;;;;;;5068380;28;20060;-69
2022/07/16 12:25:42;;;;;;;0.63;0.30;;;18.90;95.70;;;;;;5066533;28;20048;-69
2022/07/16 12:28:09;;;;;;;4.18;0.30;;;18.90;95.10;;;;;;5065066;28;20056;-69
2022/07/16 12:30:37;;;;;;;0.90;0.30;;;19.00;95.30;;;;;;5067310;28;20087;-69
2022/07/16 12:33:28;;;;;;;4.75;0.40;;;19.00;94.70;;;;;;5067489;28;20508;-68
2022/07/16 12:36:09;;;;;;;1.67;0.30;;;19.00;91.40;;;;;;5061394;28;20401;-69
2022/07/16 12:38:54;;;;;;;1.38;0.30;;;18.90;91.90;;;;;;5070650;28;20475;-68
2022/07/16 12:41:33;;;;;;;1.75;0.30;;;19.00;91.30;;;;;;5071255;28;20049;-68
2022/07/16 12:44:01;;;;;;;2.92;0.30;;;19.10;91.70;;;;;;5070747;28;20060;-69
2022/07/16 12:46:38;;;;;;;1.50;0.30;;;19.10;92.30;;;;;;5067841;28;20057;-69
2022/07/16 12:49:13;;;;;;;1.92;0.35;;;19.20;92.50;;;;;;5070491;28;20055;-68
2022/07/16 12:51:44;;;;;;;2.70;0.40;;;19.30;92.30;;;;;;5071482;28;20070;-67
2022/07/16 12:54:12;;;;;;;3.08;0.30;;;19.30;92.60;;;;;;5069478;28;20086;-68
2022/07/16 12:59:24;;;;;;;2.25;0.30;;;19.20;93.70;;;;;;5070651;28;20055;-68